createdAt,value
2022-12-12T00:01:40.614Z,-1.56
2022-12-12T00:04:09.506Z,-1.49
2022-12-12T00:06:37.666Z,-1.54
2022-12-12T00:09:05.834Z,-1.30
2022-12-12T00:11:34.346Z,-1.44
2022-12-12T00:14:02.976Z,-1.48
2022-12-12T00:16:31.612Z,-1.59
2022-12-12T00:19:00.144Z,-1.52
2022-12-12T00:21:29.764Z,-1.63
2022-12-12T00:23:58.105Z,-1.60
2022-12-12T00:26:33.338Z,-1.53
2022-12-12T00:29:02.033Z,-1.50
2022-12-12T00:31:30.321Z,-1.47
2022-12-12T00:33:58.495Z,-1.62
2022-12-12T00:36:29.228Z,-1.61
2022-12-12T00:38:58.266Z,-1.75
2022-12-12T00:41:26.903Z,-1.66
2022-12-12T00:43:55.016Z,-1.62
2022-12-12T00:46:25.497Z,-1.79
2022-12-12T00:48:55.978Z,-1.80
2022-12-12T00:51:28.330Z,-1.83
2022-12-12T00:53:58.421Z,-1.87
2022-12-12T00:56:29.141Z,-1.91
2022-12-12T00:58:57.340Z,-1.93
2022-12-12T01:01:29.331Z,-1.91
2022-12-12T01:03:59.219Z,-2.02
2022-12-12T01:06:28.332Z,-1.86
2022-12-12T01:08:56.824Z,-1.89
2022-12-12T01:11:26.059Z,-1.84
2022-12-12T01:13:55.108Z,-1.76
2022-12-12T01:16:24.643Z,-1.90
2022-12-12T01:18:53.506Z,-2.01
2022-12-12T01:21:22.384Z,-1.96
2022-12-12T01:23:51.464Z,-2.01
2022-12-12T01:26:22.321Z,-1.99
2022-12-12T01:28:51.482Z,-1.97
2022-12-12T01:31:21.386Z,-2.06
2022-12-12T01:33:49.959Z,-2.02
2022-12-12T01:36:20.665Z,-1.96
2022-12-12T01:38:51.405Z,-1.92
2022-12-12T01:41:20.656Z,-1.86
2022-12-12T01:43:49.369Z,-2.03
2022-12-12T01:46:41.739Z,-2.03
2022-12-12T01:49:19.983Z,-2.09
2022-12-12T01:51:50.183Z,-2.00
2022-12-12T01:54:26.347Z,-1.92
2022-12-12T01:56:57.213Z,-1.97
2022-12-12T01:59:27.832Z,-2.05
2022-12-12T02:01:57.106Z,-2.08
2022-12-12T02:04:27.912Z,-2.04
2022-12-12T02:06:57.109Z,-1.92
2022-12-12T02:09:26.484Z,-1.85
2022-12-12T02:11:56.896Z,-1.89
2022-12-12T02:14:40.711Z,-2.09
2022-12-12T02:17:08.881Z,-2.14
2022-12-12T02:19:55.823Z,-2.12
2022-12-12T02:22:47.645Z,-2.21
2022-12-12T02:25:21.794Z,-2.27
2022-12-12T02:28:15.557Z,-2.18
2022-12-12T02:31:00.962Z,-2.10
2022-12-12T02:33:54.240Z,-2.18
2022-12-12T02:36:48.855Z,-2.31
2022-12-12T02:39:24.414Z,-2.09
2022-12-12T02:42:19.022Z,-2.19
2022-12-12T02:45:00.008Z,-2.15
2022-12-12T02:47:35.615Z,-2.07
2022-12-12T02:50:10.789Z,-2.11
2022-12-12T02:52:42.017Z,-2.21
2022-12-12T02:55:10.365Z,-2.10
2022-12-12T02:57:41.752Z,-2.27
2022-12-12T03:00:17.228Z,-2.28
2022-12-12T03:02:48.751Z,-2.17
2022-12-12T03:05:56.116Z,-2.10
2022-12-12T03:08:52.368Z,-2.41
2022-12-12T03:11:46.334Z,-2.29
2022-12-12T03:14:34.209Z,-2.29
2022-12-12T03:17:13.200Z,-2.19
2022-12-12T03:19:48.454Z,-2.32
2022-12-12T03:23:02.586Z,-2.30
2022-12-12T03:25:35.426Z,-2.39
2022-12-12T03:28:11.526Z,-2.35
2022-12-12T03:30:45.300Z,-2.44
2022-12-12T03:33:18.738Z,-2.51
2022-12-12T03:35:53.581Z,-2.54
2022-12-12T03:38:26.872Z,-2.38
2022-12-12T03:40:59.140Z,-2.43
2022-12-12T03:43:40.491Z,-2.42
2022-12-12T03:46:21.042Z,-2.60
2022-12-12T03:48:57.477Z,-2.44
2022-12-12T03:51:31.274Z,-2.54
2022-12-12T03:54:10.702Z,-2.36
2022-12-12T03:56:46.182Z,-2.50
2022-12-12T03:59:16.692Z,-2.42
2022-12-12T04:01:56.382Z,-2.42
2022-12-12T04:04:48.464Z,-2.49
2022-12-12T04:07:33.936Z,-2.49
2022-12-12T04:10:20.726Z,-2.45
2022-12-12T04:13:00.624Z,-2.37
2022-12-12T04:15:31.820Z,-2.47
2022-12-12T04:18:21.165Z,-2.49
2022-12-12T04:21:34.103Z,-2.45
2022-12-12T04:24:29.470Z,-2.58
2022-12-12T04:27:25.782Z,-2.55
2022-12-12T04:30:16.108Z,-2.70
2022-12-12T04:33:02.268Z,-2.61
2022-12-12T04:35:44.283Z,-2.69
2022-12-12T04:38:21.816Z,-2.67
2022-12-12T04:40:55.053Z,-2.72
2022-12-12T04:43:31.649Z,-2.72
2022-12-12T04:46:05.414Z,-2.69
2022-12-12T04:48:44.249Z,-2.72
2022-12-12T04:51:17.242Z,-2.86
2022-12-12T04:53:52.572Z,-2.92
2022-12-12T04:56:27.598Z,-2.84
2022-12-12T04:58:57.263Z,-2.93
2022-12-12T05:01:46.915Z,-2.85
2022-12-12T05:04:25.447Z,-2.68
2022-12-12T05:07:00.848Z,-2.82
2022-12-12T05:09:29.690Z,-2.63
2022-12-12T05:11:58.230Z,-2.77
2022-12-12T05:14:27.293Z,-2.76
2022-12-12T05:17:01.209Z,-2.78
2022-12-12T05:19:29.516Z,-2.79
2022-12-12T05:21:57.924Z,-2.90
2022-12-12T05:24:30.857Z,-2.96
2022-12-12T05:26:59.477Z,-2.90
2022-12-12T05:29:27.646Z,-3.11
2022-12-12T05:31:55.888Z,-3.17
2022-12-12T05:34:24.247Z,-3.02
2022-12-12T05:36:52.419Z,-2.96
2022-12-12T05:39:20.538Z,-2.99
2022-12-12T05:41:48.875Z,-3.01
2022-12-12T05:44:17.029Z,-3.02
2022-12-12T05:46:45.630Z,-2.98
2022-12-12T05:49:14.007Z,-3.11
2022-12-12T05:51:42.325Z,-3.23
2022-12-12T05:54:10.463Z,-3.22
2022-12-12T05:56:38.755Z,-2.96
2022-12-12T05:59:06.811Z,-3.21
2022-12-12T06:01:34.873Z,-3.32
2022-12-12T06:04:03.501Z,-3.24
2022-12-12T06:06:31.778Z,-3.05
2022-12-12T06:08:59.950Z,-3.21
2022-12-12T06:11:28.381Z,-3.28
2022-12-12T06:13:56.475Z,-3.25
2022-12-12T06:16:24.696Z,-3.37
2022-12-12T06:18:54.813Z,-3.34
2022-12-12T06:21:23.466Z,-3.46
2022-12-12T06:23:51.705Z,-3.47
2022-12-12T06:26:20.870Z,-3.29
2022-12-12T06:28:49.958Z,-3.22
2022-12-12T06:31:18.364Z,-3.30
2022-12-12T06:33:46.799Z,-3.32
2022-12-12T06:36:23.875Z,-3.30
2022-12-12T06:38:54.015Z,-3.27
2022-12-12T06:41:24.285Z,-3.18
2022-12-12T06:43:52.967Z,-3.17
2022-12-12T06:46:26.855Z,-3.23
2022-12-12T06:48:56.385Z,-3.31
2022-12-12T06:51:28.305Z,-3.15
2022-12-12T06:53:57.077Z,-3.03
2022-12-12T06:56:26.648Z,-2.95
2022-12-12T06:58:55.490Z,-2.81
2022-12-12T07:01:24.664Z,-2.81
2022-12-12T07:03:53.210Z,-2.82
2022-12-12T07:06:23.353Z,-2.76
2022-12-12T07:08:52.699Z,-2.71
2022-12-12T07:11:24.420Z,-2.68
2022-12-12T07:13:54.495Z,-2.75
2022-12-12T07:16:23.912Z,-2.64
2022-12-12T07:18:52.656Z,-2.48
2022-12-12T07:21:21.620Z,-2.31
2022-12-12T07:23:49.652Z,-2.26
2022-12-12T07:26:20.585Z,-2.22
2022-12-12T07:28:50.191Z,-2.23
2022-12-12T07:31:22.434Z,-1.88
2022-12-12T07:33:50.705Z,-1.80
2022-12-12T07:36:19.127Z,-1.88
2022-12-12T07:38:47.347Z,-1.64
2022-12-12T07:41:17.479Z,-1.50
2022-12-12T07:43:49.747Z,-1.65
2022-12-12T07:46:22.101Z,-1.70
2022-12-12T07:48:51.946Z,-1.57
2022-12-12T07:51:20.636Z,-1.71
2022-12-12T07:53:48.813Z,-1.71
2022-12-12T07:56:18.814Z,-1.62
2022-12-12T07:58:47.071Z,-1.59
2022-12-12T08:01:21.962Z,-1.41
2022-12-12T08:03:50.868Z,-1.39
2022-12-12T08:06:20.463Z,-1.27
2022-12-12T08:08:49.927Z,-1.30
2022-12-12T08:11:21.878Z,-1.45
2022-12-12T08:13:51.363Z,-1.28
2022-12-12T08:16:30.030Z,-1.11
2022-12-12T08:18:59.393Z,-1.16
2022-12-12T08:21:28.721Z,-1.13
2022-12-12T08:24:01.711Z,-1.12
2022-12-12T08:26:30.946Z,-1.18
2022-12-12T08:28:59.276Z,-0.90
2022-12-12T08:31:27.707Z,-0.85
2022-12-12T08:33:56.462Z,-0.61
2022-12-12T08:36:30.796Z,-0.55
2022-12-12T08:39:04.599Z,-0.46
2022-12-12T08:41:34.652Z,-0.39
2022-12-12T08:44:03.682Z,-0.14
2022-12-12T08:46:32.007Z,-0.05
2022-12-12T08:49:00.581Z,0.10
2022-12-12T08:51:28.954Z,0.16
2022-12-12T08:53:57.122Z,0.16
2022-12-12T08:56:25.344Z,0.60
2022-12-12T08:58:53.755Z,0.65
2022-12-12T09:01:24.736Z,0.56
2022-12-12T09:03:55.755Z,0.73
2022-12-12T09:06:26.017Z,0.65
2022-12-12T09:08:56.558Z,0.93
2022-12-12T09:11:25.405Z,1.11
2022-12-12T09:13:53.624Z,1.33
2022-12-12T09:16:23.503Z,1.59
2022-12-12T09:18:52.100Z,1.66
2022-12-12T09:21:20.379Z,1.63
2022-12-12T09:23:49.409Z,1.65
2022-12-12T09:26:18.056Z,2.09
2022-12-12T09:28:46.324Z,2.31
2022-12-12T09:31:14.612Z,2.24
2022-12-12T09:33:43.428Z,1.98
2022-12-12T09:36:13.174Z,1.68
2022-12-12T09:38:41.955Z,1.65
2022-12-12T09:41:12.251Z,1.72
2022-12-12T09:43:51.502Z,1.48
2022-12-12T09:46:41.419Z,1.74
2022-12-12T09:49:43.200Z,1.79
2022-12-12T09:52:16.458Z,1.42
2022-12-12T09:54:45.616Z,1.93
2022-12-12T09:57:14.160Z,2.23
2022-12-12T09:59:45.650Z,2.36
2022-12-12T10:02:20.155Z,2.28
2022-12-12T10:05:00.206Z,2.39
2022-12-12T10:07:49.226Z,2.13
2022-12-12T10:10:31.319Z,1.45
2022-12-12T10:13:02.028Z,1.87
2022-12-12T10:15:43.945Z,2.03
2022-12-12T10:18:21.603Z,1.70
2022-12-12T10:20:54.061Z,0.94
2022-12-12T10:23:27.844Z,0.66
2022-12-12T10:25:57.289Z,0.66
2022-12-12T10:28:27.877Z,0.43
2022-12-12T10:31:12.181Z,0.13
2022-12-12T10:34:07.670Z,0.05
2022-12-12T10:36:48.179Z,-0.20
2022-12-12T10:39:54.243Z,-0.57
2022-12-12T10:42:38.605Z,-0.51
2022-12-12T10:45:48.260Z,-0.64
2022-12-12T10:48:18.069Z,-0.38
2022-12-12T10:50:51.861Z,-0.76
2022-12-12T10:53:22.017Z,-0.76
2022-12-12T10:55:55.222Z,-1.05
2022-12-12T10:58:35.338Z,-0.81
2022-12-12T11:01:11.334Z,-0.99
2022-12-12T11:03:42.721Z,-0.87
2022-12-12T11:06:14.913Z,-1.07
2022-12-12T11:09:07.139Z,-0.95
2022-12-12T11:11:35.339Z,-0.93
2022-12-12T11:14:27.398Z,-0.83
2022-12-12T11:16:55.600Z,-0.98
2022-12-12T11:19:29.149Z,-1.13
2022-12-12T11:22:03.951Z,-1.11
2022-12-12T11:24:33.110Z,-1.17
2022-12-12T11:27:04.590Z,-1.26
2022-12-12T11:29:48.284Z,-1.23
2022-12-12T11:32:20.000Z,-1.17
2022-12-12T11:34:54.498Z,-1.15
2022-12-12T11:37:27.067Z,-1.29
2022-12-12T11:39:57.673Z,-1.09
2022-12-12T11:42:30.723Z,-1.39
2022-12-12T11:45:19.535Z,-1.32
2022-12-12T11:47:48.481Z,-0.99
2022-12-12T11:50:27.915Z,-0.97
2022-12-12T11:53:00.543Z,-1.11
2022-12-12T11:56:07.393Z,-1.00
2022-12-12T11:58:42.489Z,-0.93
2022-12-12T12:01:46.133Z,-1.11
2022-12-12T12:04:52.658Z,-1.04
2022-12-12T12:07:44.805Z,-1.19
2022-12-12T12:10:37.301Z,-1.25
2022-12-12T12:13:19.958Z,-1.30
2022-12-12T12:16:15.394Z,-1.18
2022-12-12T12:18:46.779Z,-1.40
2022-12-12T12:21:37.278Z,-1.35
2022-12-12T12:24:49.267Z,-1.58
2022-12-12T12:27:20.473Z,-1.45
2022-12-12T12:29:56.980Z,-1.39
2022-12-12T12:32:25.459Z,-1.55
2022-12-12T12:34:59.486Z,-1.32
2022-12-12T12:37:53.073Z,-1.21
2022-12-12T12:40:38.482Z,-1.27
2022-12-12T12:43:17.163Z,-1.32
2022-12-12T12:46:10.046Z,-1.54
2022-12-12T12:48:43.715Z,-1.52
2022-12-12T12:51:24.648Z,-1.70
2022-12-12T12:54:07.716Z,-1.69
2022-12-12T12:56:44.234Z,-1.69
2022-12-12T12:59:18.796Z,-1.85
2022-12-12T13:01:50.983Z,-1.76
2022-12-12T13:04:26.458Z,-1.82
2022-12-12T13:07:03.883Z,-1.88
2022-12-12T13:09:48.888Z,-1.89
2022-12-12T13:12:31.347Z,-1.91
2022-12-12T13:15:31.479Z,-1.98
2022-12-12T13:18:05.181Z,-1.99
2022-12-12T13:20:40.440Z,-2.09
2022-12-12T13:23:17.801Z,-2.21
2022-12-12T13:26:12.181Z,-2.39
2022-12-12T13:28:46.855Z,-2.34
2022-12-12T13:31:39.365Z,-2.22
2022-12-12T13:34:13.332Z,-2.24
2022-12-12T13:36:46.400Z,-2.26
2022-12-12T13:39:32.212Z,-2.19
2022-12-12T13:42:06.588Z,-2.20
2022-12-12T13:44:44.660Z,-2.26
2022-12-12T13:47:22.122Z,-2.29
2022-12-12T13:50:22.800Z,-2.24
2022-12-12T13:53:06.783Z,-2.23
2022-12-12T13:55:36.245Z,-2.27
2022-12-12T13:58:33.234Z,-2.25
2022-12-12T14:01:40.703Z,-2.30
2022-12-12T14:04:32.782Z,-2.26
2022-12-12T14:07:02.897Z,-2.25
2022-12-12T14:09:47.735Z,-2.27
2022-12-12T14:12:29.223Z,-2.17
2022-12-12T14:15:05.395Z,-2.16
2022-12-12T14:17:42.340Z,-2.18
2022-12-12T14:20:33.435Z,-2.14
2022-12-12T14:23:23.507Z,-2.13
2022-12-12T14:25:52.670Z,-2.15
2022-12-12T14:28:32.912Z,-2.21
2022-12-12T14:31:15.080Z,-2.25
2022-12-12T14:34:13.407Z,-2.18
2022-12-12T14:37:02.671Z,-2.22
2022-12-12T14:39:31.332Z,-2.22
2022-12-12T14:42:06.386Z,-2.21
2022-12-12T14:44:44.229Z,-2.20
2022-12-12T14:47:17.855Z,-2.27
2022-12-12T14:49:46.879Z,-2.26
2022-12-12T14:52:21.893Z,-2.22
2022-12-12T14:54:50.997Z,-2.23
2022-12-12T14:57:23.167Z,-2.28
2022-12-12T14:59:53.158Z,-2.19
2022-12-12T15:02:29.673Z,-2.35
2022-12-12T15:05:04.864Z,-2.19
2022-12-12T15:07:40.596Z,-2.27
2022-12-12T15:10:29.274Z,-2.27
2022-12-12T15:12:57.975Z,-2.25
2022-12-12T15:15:29.848Z,-2.39
2022-12-12T15:18:00.895Z,-2.35
2022-12-12T15:20:32.222Z,-2.40
2022-12-12T15:23:07.037Z,-2.39
2022-12-12T15:25:45.502Z,-2.36
2022-12-12T15:28:17.056Z,-2.31
2022-12-12T15:30:50.235Z,-2.28
2022-12-12T15:33:22.142Z,-2.25
2022-12-12T15:36:02.304Z,-2.20
2022-12-12T15:38:33.136Z,-2.18
2022-12-12T15:41:09.608Z,-2.32
2022-12-12T15:43:43.320Z,-2.24
2022-12-12T15:46:15.132Z,-2.24
2022-12-12T15:48:49.060Z,-2.27
2022-12-12T15:51:24.813Z,-2.34
2022-12-12T15:54:13.104Z,-2.45
2022-12-12T15:56:41.353Z,-2.33
2022-12-12T15:59:10.894Z,-2.33
2022-12-12T16:01:39.133Z,-2.34
2022-12-12T16:04:10.768Z,-2.41
2022-12-12T16:06:41.414Z,-2.43
2022-12-12T16:09:24.364Z,-2.35
2022-12-12T16:11:53.933Z,-2.24
2022-12-12T16:14:43.231Z,-2.22
2022-12-12T16:17:11.318Z,-2.28
2022-12-12T16:19:57.227Z,-2.42
2022-12-12T16:22:36.241Z,-2.27
2022-12-12T16:25:25.771Z,-2.22
2022-12-12T16:28:09.805Z,-2.27
2022-12-12T16:30:42.216Z,-2.07
2022-12-12T16:33:23.434Z,-2.31
2022-12-12T16:35:52.403Z,-2.26
2022-12-12T16:38:21.388Z,-2.33
2022-12-12T16:40:51.482Z,-2.36
2022-12-12T16:43:21.963Z,-2.42
2022-12-12T16:45:52.596Z,-2.31
2022-12-12T16:48:25.064Z,-2.32
2022-12-12T16:50:58.571Z,-2.36
2022-12-12T16:53:27.401Z,-2.35
2022-12-12T16:55:55.610Z,-2.43
2022-12-12T16:58:24.514Z,-2.33
2022-12-12T17:00:54.069Z,-2.36
2022-12-12T17:03:23.604Z,-2.24
2022-12-12T17:06:12.962Z,-2.38
2022-12-12T17:08:41.516Z,-2.34
2022-12-12T17:11:11.390Z,-2.36
2022-12-12T17:13:46.588Z,-2.32
2022-12-12T17:16:15.187Z,-2.47
2022-12-12T17:18:43.462Z,-2.44
2022-12-12T17:21:11.745Z,-2.31
2022-12-12T17:23:40.565Z,-2.37
2022-12-12T17:26:08.773Z,-2.41
2022-12-12T17:28:37.025Z,-2.26
2022-12-12T17:31:09.399Z,-2.51
2022-12-12T17:33:49.602Z,-2.57
2022-12-12T17:36:20.010Z,-2.46
2022-12-12T17:38:49.501Z,-2.62
2022-12-12T17:41:17.640Z,-2.53
2022-12-12T17:43:50.589Z,-2.51
2022-12-12T17:46:22.496Z,-2.54
2022-12-12T17:48:53.048Z,-2.64
2022-12-12T17:51:24.011Z,-2.60
2022-12-12T17:53:54.635Z,-2.63
2022-12-12T17:56:25.145Z,-2.64
2022-12-12T17:58:54.641Z,-2.61
2022-12-12T18:01:25.149Z,-2.68
2022-12-12T18:03:54.659Z,-2.64
2022-12-12T18:06:23.880Z,-2.61
2022-12-12T18:08:54.601Z,-2.58
2022-12-12T18:11:35.539Z,-2.65
2022-12-12T18:14:06.098Z,-2.59
2022-12-12T18:16:36.223Z,-2.60
2022-12-12T18:19:04.799Z,-2.64
2022-12-12T18:24:25.168Z,-2.56
2022-12-12T18:26:55.465Z,-2.57
2022-12-12T18:29:25.651Z,-2.61
2022-12-12T18:31:54.315Z,-2.68
2022-12-12T18:34:23.009Z,-2.64
2022-12-12T18:36:51.632Z,-2.49
2022-12-12T18:39:19.807Z,-2.64
2022-12-12T18:41:48.466Z,-2.49
2022-12-12T18:44:18.234Z,-2.54
2022-12-12T18:46:50.578Z,-2.44
2022-12-12T18:49:19.378Z,-2.46
2022-12-12T18:51:47.943Z,-2.54
2022-12-12T18:54:16.851Z,-2.41
2022-12-12T18:56:46.947Z,-2.36
2022-12-12T18:59:16.631Z,-2.33
2022-12-12T19:01:45.620Z,-2.26
2022-12-12T19:04:20.945Z,-2.29
2022-12-12T19:06:52.944Z,-2.32
2022-12-12T19:09:21.896Z,-2.19
2022-12-12T19:11:58.243Z,-2.15
2022-12-12T19:14:46.014Z,-2.23
2022-12-12T19:17:25.270Z,-2.04
2022-12-12T19:19:54.872Z,-2.12
2022-12-12T19:25:12.631Z,-2.11
2022-12-12T19:27:41.042Z,-2.08
2022-12-12T19:30:15.891Z,-2.07
2022-12-12T19:32:48.873Z,-1.98
2022-12-12T19:35:18.115Z,-2.16
2022-12-12T19:37:47.295Z,-2.01
2022-12-12T19:40:16.576Z,-1.99
2022-12-12T19:42:45.437Z,-2.00
2022-12-12T19:45:14.826Z,-2.08
2022-12-12T19:47:43.191Z,-2.17
2022-12-12T19:50:11.877Z,-2.10
2022-12-12T19:52:41.378Z,-2.07
2022-12-12T19:55:10.253Z,-2.06
2022-12-12T19:57:38.855Z,-2.13
2022-12-12T20:00:09.742Z,-1.98
2022-12-12T20:02:38.253Z,-1.80
2022-12-12T20:05:07.115Z,-1.94
2022-12-12T20:07:35.599Z,-1.90
2022-12-12T20:10:06.019Z,-1.89
2022-12-12T20:12:34.632Z,-1.91
2022-12-12T20:15:03.627Z,-1.99
2022-12-12T20:17:32.219Z,-1.89
2022-12-12T20:20:01.560Z,-1.97
2022-12-12T20:22:30.030Z,-1.96
2022-12-12T20:24:58.434Z,-1.97
2022-12-12T20:27:29.531Z,-1.86
2022-12-12T20:29:57.831Z,-1.87
2022-12-12T20:32:28.584Z,-1.91
2022-12-12T20:34:57.686Z,-1.98
2022-12-12T20:37:26.574Z,-2.02
2022-12-12T20:39:59.125Z,-2.07
2022-12-12T20:42:27.970Z,-2.10
2022-12-12T20:44:56.176Z,-2.15
2022-12-12T20:47:24.598Z,-2.08
2022-12-12T20:49:53.626Z,-2.15
2022-12-12T20:52:21.877Z,-2.16
2022-12-12T20:54:50.135Z,-2.09
2022-12-12T20:57:18.756Z,-2.05
2022-12-12T20:59:47.565Z,-1.96
2022-12-12T21:02:16.311Z,-2.11
2022-12-12T21:04:45.196Z,-2.25
2022-12-12T21:07:13.213Z,-2.20
2022-12-12T21:09:41.915Z,-2.23
2022-12-12T21:12:10.398Z,-2.13
2022-12-12T21:14:38.548Z,-2.17
2022-12-12T21:17:07.000Z,-2.21
2022-12-12T21:19:35.730Z,-2.30
2022-12-12T21:22:05.605Z,-2.28
2022-12-12T21:24:34.010Z,-2.23
2022-12-12T21:27:02.642Z,-2.16
2022-12-12T21:29:31.052Z,-2.28
2022-12-12T21:31:59.349Z,-2.18
2022-12-12T21:34:27.969Z,-2.30
2022-12-12T21:36:56.601Z,-2.33
2022-12-12T21:39:27.282Z,-2.36
2022-12-12T21:41:56.372Z,-2.31
2022-12-12T21:44:24.801Z,-2.24
2022-12-12T21:46:53.137Z,-2.23
2022-12-12T21:49:28.031Z,-2.29
2022-12-12T21:52:02.320Z,-2.34
2022-12-12T21:54:31.464Z,-2.22
2022-12-12T21:57:00.599Z,-2.25
2022-12-12T21:59:31.135Z,-2.28
2022-12-12T22:02:05.387Z,-2.31
2022-12-12T22:04:33.835Z,-2.35
2022-12-12T22:07:01.844Z,-2.35
2022-12-12T22:09:29.977Z,-2.17
2022-12-12T22:12:03.275Z,-2.25
2022-12-12T22:14:35.169Z,-2.28
2022-12-12T22:17:05.065Z,-2.37
2022-12-12T22:19:33.184Z,-2.30
2022-12-12T22:22:01.269Z,-2.32
2022-12-12T22:24:29.735Z,-2.26
2022-12-12T22:26:57.897Z,-2.19
2022-12-12T22:29:26.107Z,-2.44
2022-12-12T22:31:54.476Z,-2.46
2022-12-12T22:34:24.429Z,-2.43
2022-12-12T22:36:54.094Z,-2.44
2022-12-12T22:39:27.629Z,-2.43
2022-12-12T22:41:56.903Z,-2.54
2022-12-12T22:44:26.587Z,-2.50
2022-12-12T22:46:55.470Z,-2.66
2022-12-12T22:49:26.063Z,-2.56
2022-12-12T22:51:57.057Z,-2.64
2022-12-12T22:54:26.589Z,-2.58
2022-12-12T22:56:55.147Z,-2.49
2022-12-12T22:59:25.152Z,-2.61
2022-12-12T23:01:53.574Z,-2.56
2022-12-12T23:04:22.051Z,-2.57
2022-12-12T23:06:50.331Z,-2.58
2022-12-12T23:09:21.815Z,-2.60
2022-12-12T23:11:50.679Z,-2.71
2022-12-12T23:14:22.702Z,-2.68
2022-12-12T23:16:52.074Z,-2.57
2022-12-12T23:19:23.431Z,-2.56
2022-12-12T23:21:52.262Z,-2.73
2022-12-12T23:24:20.679Z,-2.65
2022-12-12T23:26:51.615Z,-2.71
2022-12-12T23:29:20.424Z,-2.61
2022-12-12T23:31:49.750Z,-2.73
2022-12-12T23:34:22.899Z,-2.80
2022-12-12T23:36:52.828Z,-2.77
2022-12-12T23:39:21.830Z,-2.75
2022-12-12T23:41:50.061Z,-2.81
2022-12-12T23:44:20.329Z,-2.83
2022-12-12T23:46:48.593Z,-2.78
2022-12-12T23:49:23.084Z,-2.83
2022-12-12T23:51:53.162Z,-2.84
2022-12-12T23:54:27.902Z,-2.63
2022-12-12T23:56:56.514Z,-2.79
2022-12-12T23:59:26.041Z,-2.93
